Time;durP1;ratioP1;P1;durP2;ratioP2;P2;SDS_P1;SDS_P2;PMS_P1;PMS_P2;Temp;Humidity;BMP_temperature;BMP_pressure;BME280_temperature;BME280_humidity;BME280_pressure;Samples;Min_cycle;Max_cycle;Signal;HPM_P1;HPM_P2
2023/08/08 00:00:05;;;;;;;9.63;5.70;;;17.80;99.90;;;;;;4993407;28;20500;-79
2023/08/08 00:02:32;;;;;;;17.40;12.53;;;17.70;99.90;;;;;;4993440;28;20502;-79
2023/08/08 00:04:59;;;;;;;6.07;4.07;;;17.70;99.90;;;;;;4993768;28;20568;-82
2023/08/08 00:07:29;;;;;;;4.70;2.10;;;17.70;99.90;;;;;;4993375;28;20470;-81
2023/08/08 00:09:56;;;;;;;3.70;3.33;;;17.50;99.90;;;;;;4993864;28;20482;-81
2023/08/08 00:12:25;;;;;;;4.57;2.50;;;17.50;99.90;;;;;;5011430;28;20465;-80
2023/08/08 00:14:52;;;;;;;5.53;2.70;;;17.50;99.90;;;;;;5013261;28;20548;-81
2023/08/08 00:17:19;;;;;;;6.87;3.90;;;17.40;99.90;;;;;;5013551;28;20536;-82
2023/08/08 00:19:46;;;;;;;4.63;3.10;;;17.40;99.90;;;;;;5012204;28;20477;-81
2023/08/08 00:22:13;;;;;;;6.93;4.47;;;17.40;99.90;;;;;;5012328;28;20576;-81
2023/08/08 00:24:40;;;;;;;4.80;3.07;;;17.40;99.90;;;;;;5012415;28;20990;-81
2023/08/08 00:27:08;;;;;;;4.13;2.67;;;17.40;99.90;;;;;;5013521;28;20473;-81
2023/08/08 00:29:37;;;;;;;3.43;2.00;;;17.40;99.90;;;;;;5013232;28;20492;-79
2023/08/08 00:32:07;;;;;;;6.70;3.73;;;17.30;99.90;;;;;;5013535;28;20877;-82
2023/08/08 00:34:34;;;;;;;9.70;4.43;;;17.30;99.90;;;;;;5011835;28;20545;-81
2023/08/08 00:37:01;;;;;;;3.40;2.07;;;17.40;99.90;;;;;;5010095;28;21098;-81
2023/08/08 00:39:28;;;;;;;2.97;2.40;;;17.30;99.90;;;;;;4996860;28;20477;-82
2023/08/08 00:41:55;;;;;;;15.60;10.20;;;17.30;99.90;;;;;;4997431;28;20872;-79
2023/08/08 00:44:22;;;;;;;4.60;3.87;;;17.30;99.90;;;;;;4997353;28;20502;-82
2023/08/08 00:46:50;;;;;;;7.70;4.67;;;17.20;99.90;;;;;;4997266;28;20489;-80
2023/08/08 00:49:19;;;;;;;4.67;3.30;;;17.20;99.90;;;;;;4997489;28;20532;-81
2023/08/08 00:51:49;;;;;;;4.13;2.30;;;17.20;99.90;;;;;;4997017;28;20532;-81
2023/08/08 00:54:17;;;;;;;6.10;5.57;;;17.10;99.90;;;;;;4997021;28;20574;-80
2023/08/08 00:56:44;;;;;;;5.20;2.50;;;17.10;99.90;;;;;;4996638;28;20499;-81
2023/08/08 00:59:15;;;;;;;5.13;2.70;;;17.00;99.90;;;;;;4997825;28;20497;-80
2023/08/08 01:01:42;;;;;;;4.13;2.40;;;17.00;99.90;;;;;;4996520;28;20473;-79
2023/08/08 01:04:10;;;;;;;4.17;2.63;;;17.00;99.90;;;;;;4987083;28;20501;-81
2023/08/08 01:06:42;;;;;;;6.10;2.97;;;17.00;99.90;;;;;;4996266;28;20545;-79
2023/08/08 01:09:14;;;;;;;2.50;2.00;;;16.90;99.90;;;;;;4985723;28;20525;-81
2023/08/08 01:11:42;;;;;;;5.03;2.33;;;16.90;99.90;;;;;;4997581;28;21029;-80
2023/08/08 01:14:11;;;;;;;7.53;4.17;;;16.80;99.90;;;;;;5012305;28;20461;-80
2023/08/08 01:16:40;;;;;;;5.40;2.13;;;16.80;99.90;;;;;;5011955;28;20493;-81
2023/08/08 01:19:09;;;;;;;9.47;5.27;;;16.90;99.90;;;;;;5016099;28;20548;-81
2023/08/08 01:21:41;;;;;;;2.90;1.97;;;16.80;99.90;;;;;;5011557;28;20809;-80
2023/08/08 01:24:19;;;;;;;2.00;1.80;;;16.80;99.90;;;;;;5014011;28;20771;-81
2023/08/08 01:26:46;;;;;;;5.30;2.50;;;16.70;99.90;;;;;;5017374;28;20799;-79
2023/08/08 01:29:13;;;;;;;3.07;2.10;;;16.70;99.90;;;;;;5018260;28;20484;-80
2023/08/08 01:31:41;;;;;;;4.53;2.30;;;16.60;99.90;;;;;;5024254;28;20556;-80
2023/08/08 01:34:08;;;;;;;5.43;1.73;;;16.60;99.90;;;;;;5017301;28;20469;-80
2023/08/08 01:36:43;;;;;;;11.40;9.20;;;16.60;99.90;;;;;;5021239;28;20496;-80
2023/08/08 01:39:21;;;;;;;7.83;4.40;;;16.60;99.90;;;;;;5016633;28;20982;-81
2023/08/08 01:41:49;;;;;;;7.87;4.93;;;16.70;99.90;;;;;;5017021;28;20500;-80
2023/08/08 01:44:17;;;;;;;4.73;3.57;;;16.70;99.90;;;;;;5015809;28;20469;-79
2023/08/08 01:46:44;;;;;;;2.10;1.90;;;16.70;99.90;;;;;;5017624;28;20497;-81
2023/08/08 01:49:11;;;;;;;11.17;6.40;;;16.60;99.90;;;;;;5020336;28;20552;-80
2023/08/08 01:51:38;;;;;;;3.80;2.23;;;16.70;99.90;;;;;;5016998;28;20477;-80
2023/08/08 01:54:05;;;;;;;2.30;2.10;;;16.60;99.90;;;;;;5016296;28;20535;-79
2023/08/08 01:56:33;;;;;;;2.60;1.80;;;16.60;99.90;;;;;;5016776;28;21006;-81
2023/08/08 01:59:00;;;;;;;4.10;2.53;;;16.60;99.90;;;;;;5016138;28;21009;-79
2023/08/08 02:01:27;;;;;;;3.80;1.80;;;16.60;99.90;;;;;;5025678;28;20489;-79
2023/08/08 02:03:57;;;;;;;4.83;2.77;;;16.60;99.90;;;;;;5015449;28;20543;-80
2023/08/08 02:06:24;;;;;;;3.27;2.17;;;16.60;99.90;;;;;;5016028;28;20480;-80
2023/08/08 02:08:51;;;;;;;6.27;1.97;;;16.50;99.90;;;;;;5014593;28;20469;-80
2023/08/08 02:11:18;;;;;;;1.80;1.60;;;16.50;99.90;;;;;;5015080;28;20540;-80
2023/08/08 02:13:46;;;;;;;6.17;4.03;;;16.50;99.90;;;;;;5015006;28;20484;-80
2023/08/08 02:16:13;;;;;;;3.70;2.63;;;16.50;99.90;;;;;;5014301;28;20481;-80
2023/08/08 02:18:41;;;;;;;6.40;2.67;;;16.50;99.90;;;;;;5015616;28;20548;-80
2023/08/08 02:21:08;;;;;;;6.47;3.70;;;16.50;99.90;;;;;;5014722;28;20477;-80
2023/08/08 02:23:37;;;;;;;2.93;2.23;;;16.40;99.90;;;;;;5014700;28;20473;-81
2023/08/08 02:26:05;;;;;;;4.13;2.00;;;16.50;99.90;;;;;;5014635;28;20508;-81
2023/08/08 02:28:32;;;;;;;5.90;1.90;;;16.40;99.90;;;;;;5015286;28;20471;-80
2023/08/08 02:31:01;;;;;;;2.77;2.10;;;16.40;99.90;;;;;;5014364;28;20471;-80
2023/08/08 02:33:28;;;;;;;4.53;2.70;;;16.40;99.90;;;;;;5014841;28;20845;-80
2023/08/08 02:35:56;;;;;;;2.53;2.33;;;16.40;99.90;;;;;;5014746;28;20485;-80
2023/08/08 02:38:23;;;;;;;5.30;3.70;;;16.40;99.90;;;;;;5014384;28;20488;-80
2023/08/08 02:40:50;;;;;;;2.67;1.80;;;16.40;99.90;;;;;;5015071;28;20473;-79
2023/08/08 02:43:17;;;;;;;3.63;1.97;;;16.40;99.90;;;;;;5014239;28;20554;-80
2023/08/08 02:45:44;;;;;;;3.10;2.10;;;16.40;99.90;;;;;;5014019;28;20975;-80
2023/08/08 02:48:13;;;;;;;2.57;1.90;;;16.50;99.90;;;;;;5013157;28;20537;-79
2023/08/08 02:50:40;;;;;;;2.27;1.47;;;16.40;99.90;;;;;;5014568;28;20548;-79
2023/08/08 02:53:07;;;;;;;4.70;1.83;;;16.40;99.90;;;;;;5013839;28;21027;-81
2023/08/08 02:55:34;;;;;;;4.47;2.67;;;16.30;99.90;;;;;;5014970;28;20559;-80
2023/08/08 02:58:01;;;;;;;4.33;2.00;;;16.30;99.90;;;;;;5014423;28;20469;-80
2023/08/08 03:00:27;;;;;;;2.13;1.87;;;16.40;99.90;;;;;;5014122;28;20467;-79
2023/08/08 03:02:57;;;;;;;2.97;2.57;;;16.40;99.90;;;;;;5014516;28;20492;-79
2023/08/08 03:05:26;;;;;;;2.80;2.33;;;16.30;99.90;;;;;;5013627;28;20511;-79
2023/08/08 03:07:53;;;;;;;4.80;1.53;;;16.20;99.90;;;;;;5014147;28;21035;-79
2023/08/08 03:10:20;;;;;;;2.47;2.27;;;16.20;99.90;;;;;;5014322;28;20782;-79
2023/08/08 03:12:47;;;;;;;4.70;1.80;;;16.20;99.90;;;;;;5014131;28;20869;-80
2023/08/08 03:15:15;;;;;;;2.20;1.60;;;16.10;99.90;;;;;;5013406;28;20938;-80
2023/08/08 03:17:42;;;;;;;2.60;2.30;;;16.10;99.90;;;;;;5014035;28;20475;-80
2023/08/08 03:20:10;;;;;;;5.70;2.43;;;16.10;99.90;;;;;;5003788;28;20871;-80
2023/08/08 03:22:39;;;;;;;2.67;2.17;;;16.10;99.90;;;;;;5013284;28;20485;-79
2023/08/08 03:25:06;;;;;;;2.27;2.07;;;16.10;99.90;;;;;;5014245;28;20483;-80
2023/08/08 03:27:33;;;;;;;3.60;2.27;;;16.10;99.90;;;;;;5013314;28;20807;-79
2023/08/08 03:30:03;;;;;;;2.07;1.87;;;16.10;99.90;;;;;;5014239;28;20473;-79
2023/08/08 03:32:30;;;;;;;5.00;1.90;;;16.10;99.90;;;;;;5013215;28;20460;-80
2023/08/08 03:34:57;;;;;;;5.90;2.60;;;16.10;99.90;;;;;;5013589;28;20804;-79
2023/08/08 03:37:24;;;;;;;3.13;2.63;;;16.00;99.90;;;;;;5013158;28;20469;-79
2023/08/08 03:39:52;;;;;;;5.90;2.47;;;16.00;99.90;;;;;;5013514;28;20484;-79
2023/08/08 03:42:19;;;;;;;2.57;2.37;;;16.00;99.90;;;;;;5012956;28;20552;-79
2023/08/08 03:44:46;;;;;;;5.30;2.10;;;16.00;99.90;;;;;;5013634;28;20469;-79
2023/08/08 03:47:13;;;;;;;3.17;2.47;;;16.00;99.90;;;;;;5013558;28;20497;-80
2023/08/08 03:49:40;;;;;;;3.43;2.60;;;16.00;99.90;;;;;;5013760;28;20473;-79
2023/08/08 03:52:07;;;;;;;5.57;2.40;;;16.00;99.90;;;;;;5013551;28;20473;-79
2023/08/08 03:54:34;;;;;;;4.60;2.33;;;16.00;99.90;;;;;;5012962;28;20528;-79
2023/08/08 03:57:03;;;;;;;3.67;2.20;;;16.00;99.90;;;;;;5013743;28;20527;-80
2023/08/08 03:59:30;;;;;;;7.00;2.50;;;16.00;99.90;;;;;;5013208;28;20483;-81
2023/08/08 04:01:56;;;;;;;2.43;1.60;;;16.00;99.90;;;;;;5013499;28;20469;-79
2023/08/08 04:04:23;;;;;;;2.37;2.17;;;16.00;99.90;;;;;;5013128;28;20552;-82
2023/08/08 04:06:50;;;;;;;2.57;2.03;;;16.00;99.90;;;;;;5013679;28;20853;-82
2023/08/08 04:09:17;;;;;;;2.97;2.60;;;16.10;99.90;;;;;;5013271;28;20473;-81
2023/08/08 04:11:44;;;;;;;5.47;2.10;;;16.00;99.90;;;;;;5014395;28;20492;-82
2023/08/08 04:14:13;;;;;;;3.73;2.30;;;16.00;99.90;;;;;;5017647;28;20477;-81
2023/08/08 04:16:40;;;;;;;3.60;2.33;;;16.00;99.90;;;;;;5017080;28;20460;-80
2023/08/08 04:19:06;;;;;;;2.87;2.37;;;16.10;99.90;;;;;;5017927;28;20550;-81
2023/08/08 04:21:33;;;;;;;5.93;2.30;;;16.10;99.90;;;;;;5017141;28;20966;-82
2023/08/08 04:24:01;;;;;;;3.70;2.13;;;16.00;99.90;;;;;;5017544;28;20479;-80
2023/08/08 04:26:28;;;;;;;3.20;2.63;;;16.00;99.90;;;;;;5016093;28;20535;-80
2023/08/08 04:28:55;;;;;;;2.73;2.40;;;16.00;99.90;;;;;;5017600;28;20554;-80
2023/08/08 04:31:25;;;;;;;3.20;2.60;;;16.00;99.90;;;;;;5016260;28;20473;-80
2023/08/08 04:33:55;;;;;;;3.47;2.23;;;16.10;99.90;;;;;;5017309;28;20475;-81
2023/08/08 04:36:22;;;;;;;3.70;2.77;;;16.00;99.90;;;;;;5017025;28;20540;-80
2023/08/08 04:38:48;;;;;;;2.77;2.53;;;16.10;99.90;;;;;;5017419;28;20540;-80
2023/08/08 04:41:15;;;;;;;2.33;2.13;;;16.10;99.90;;;;;;5018713;28;20500;-81
2023/08/08 04:43:42;;;;;;;4.17;2.57;;;16.10;99.90;;;;;;5016825;28;20480;-80
2023/08/08 04:46:09;;;;;;;2.17;1.87;;;16.10;99.90;;;;;;5017886;28;20465;-81
2023/08/08 04:48:41;;;;;;;3.50;2.40;;;16.10;99.90;;;;;;5017163;28;20465;-80
2023/08/08 04:51:13;;;;;;;4.23;2.27;;;16.20;99.90;;;;;;5018241;28;20492;-80
2023/08/08 04:53:40;;;;;;;4.97;2.10;;;16.20;99.90;;;;;;5008950;28;20556;-81
2023/08/08 04:56:08;;;;;;;4.27;3.87;;;16.30;99.90;;;;;;5020009;28;20473;-80
2023/08/08 04:58:35;;;;;;;4.00;2.27;;;16.30;99.90;;;;;;5017897;28;20970;-80
2023/08/08 05:01:02;;;;;;;2.43;2.23;;;16.40;99.90;;;;;;5016859;28;20476;-80
2023/08/08 05:03:34;;;;;;;4.23;2.27;;;16.40;99.90;;;;;;5017574;28;20481;-80
2023/08/08 05:06:05;;;;;;;3.83;2.17;;;16.50;99.90;;;;;;5017024;28;20479;-80
2023/08/08 05:08:35;;;;;;;4.10;2.53;;;16.50;99.90;;;;;;5017911;28;20472;-80
2023/08/08 05:11:02;;;;;;;4.67;2.37;;;16.50;99.90;;;;;;5017685;28;20477;-79
2023/08/08 05:13:29;;;;;;;2.40;2.20;;;16.60;99.90;;;;;;5015543;28;20524;-79
2023/08/08 05:15:56;;;;;;;3.53;2.70;;;16.50;99.90;;;;;;5017606;28;20477;-79
2023/08/08 05:18:24;;;;;;;2.40;2.20;;;16.60;99.90;;;;;;5017730;28;20532;-79
2023/08/08 05:20:56;;;;;;;3.83;2.70;;;16.60;99.90;;;;;;5016805;28;20488;-81
2023/08/08 05:23:24;;;;;;;3.10;2.20;;;16.60;99.90;;;;;;5016602;28;20480;-80
2023/08/08 05:25:51;;;;;;;2.87;2.40;;;16.50;99.90;;;;;;5017424;28;20461;-80
2023/08/08 05:28:18;;;;;;;4.43;2.30;;;16.60;99.90;;;;;;5017797;28;20484;-81
2023/08/08 05:30:48;;;;;;;6.10;3.00;;;16.50;99.90;;;;;;5016035;28;20551;-81
2023/08/08 05:33:15;;;;;;;2.57;2.37;;;16.50;99.90;;;;;;5017777;28;20560;-80
2023/08/08 05:35:42;;;;;;;3.30;2.70;;;16.60;99.90;;;;;;5016501;28;20858;-80
2023/08/08 05:38:09;;;;;;;3.00;2.30;;;16.60;99.90;;;;;;5016889;28;20476;-80
2023/08/08 05:40:37;;;;;;;3.17;1.73;;;16.70;99.90;;;;;;5014167;28;20469;-81
2023/08/08 05:43:05;;;;;;;3.77;3.40;;;16.70;99.90;;;;;;5017044;28;20527;-80
2023/08/08 05:45:32;;;;;;;3.07;2.10;;;16.80;99.90;;;;;;5016579;28;20560;-79
2023/08/08 05:48:00;;;;;;;2.50;2.20;;;16.90;99.90;;;;;;5015840;28;20556;-79
2023/08/08 05:50:28;;;;;;;3.10;2.37;;;17.10;99.90;;;;;;5016837;28;20469;-80
2023/08/08 05:52:55;;;;;;;4.10;2.13;;;17.20;99.90;;;;;;5016814;28;20477;-80
2023/08/08 05:55:23;;;;;;;3.30;2.50;;;17.30;99.90;;;;;;5024930;28;20965;-79
2023/08/08 05:57:54;;;;;;;6.27;2.20;;;17.40;99.90;;;;;;5022691;28;20473;-79
2023/08/08 06:00:21;;;;;;;5.00;2.30;;;17.50;99.90;;;;;;5014297;28;20465;-80
2023/08/08 06:02:50;;;;;;;3.10;2.57;;;17.50;99.90;;;;;;5014927;28;20515;-80
2023/08/08 06:05:18;;;;;;;2.63;2.20;;;17.60;99.90;;;;;;5015959;28;20465;-80
2023/08/08 06:07:45;;;;;;;8.47;3.80;;;17.50;99.90;;;;;;5014887;28;20469;-81
2023/08/08 06:10:15;;;;;;;5.80;2.63;;;17.60;99.90;;;;;;5013976;28;20950;-79
2023/08/08 06:12:44;;;;;;;3.77;2.50;;;17.60;99.90;;;;;;5015310;28;20560;-81
2023/08/08 06:15:12;;;;;;;3.63;3.03;;;17.60;99.90;;;;;;5015632;28;20475;-81
2023/08/08 06:17:39;;;;;;;2.30;2.10;;;17.70;99.90;;;;;;5015379;28;20473;-80
2023/08/08 06:20:08;;;;;;;3.87;2.30;;;17.70;99.90;;;;;;5015616;28;20464;-80
2023/08/08 06:22:35;;;;;;;4.23;2.43;;;17.90;99.90;;;;;;5014949;28;20469;-81
2023/08/08 06:25:03;;;;;;;3.50;2.40;;;17.90;99.90;;;;;;5015416;28;20531;-81
2023/08/08 06:27:30;;;;;;;3.70;2.10;;;17.90;99.90;;;;;;5015453;28;20954;-80
2023/08/08 06:29:58;;;;;;;2.90;2.00;;;18.10;99.90;;;;;;5014523;28;20977;-80
2023/08/08 06:32:26;;;;;;;3.80;2.00;;;18.10;99.90;;;;;;5015131;28;20477;-80
2023/08/08 06:34:53;;;;;;;4.23;2.50;;;18.10;99.90;;;;;;5013635;28;20548;-80
2023/08/08 06:37:21;;;;;;;2.07;1.87;;;18.20;99.90;;;;;;5015477;28;20477;-81
2023/08/08 06:39:48;;;;;;;5.20;3.07;;;18.10;99.90;;;;;;5014608;28;20469;-81
2023/08/08 06:42:15;;;;;;;2.30;2.10;;;18.20;99.90;;;;;;5015383;28;21045;-81
2023/08/08 06:44:44;;;;;;;3.23;1.90;;;18.30;99.90;;;;;;5014432;28;20814;-81
2023/08/08 06:47:11;;;;;;;2.50;2.30;;;18.30;99.90;;;;;;5014640;28;20954;-80
2023/08/08 06:49:40;;;;;;;2.60;2.40;;;18.30;99.90;;;;;;5014400;28;20859;-79
2023/08/08 06:52:09;;;;;;;2.97;2.67;;;18.30;99.90;;;;;;5014508;28;20499;-80
2023/08/08 06:54:37;;;;;;;1.90;1.70;;;18.30;99.90;;;;;;5014350;28;20539;-81
2023/08/08 06:57:04;;;;;;;2.80;2.27;;;18.30;99.90;;;;;;5014479;28;20850;-80
2023/08/08 06:59:31;;;;;;;4.13;2.20;;;18.30;99.90;;;;;;5014329;28;20477;-80
2023/08/08 07:01:58;;;;;;;3.90;2.43;;;18.30;99.90;;;;;;5013572;28;20543;-80
2023/08/08 07:04:25;;;;;;;3.13;2.37;;;18.40;99.90;;;;;;5014463;28;20713;-80
2023/08/08 07:06:54;;;;;;;3.70;2.80;;;18.50;99.90;;;;;;5013988;28;20828;-80
2023/08/08 07:09:22;;;;;;;4.33;2.80;;;18.50;99.90;;;;;;5014444;28;20485;-81
2023/08/08 07:11:49;;;;;;;5.50;2.53;;;18.60;99.90;;;;;;5013952;28;20469;-81
2023/08/08 07:14:15;;;;;;;5.07;2.20;;;18.60;99.90;;;;;;5012876;28;20477;-81
2023/08/08 07:16:43;;;;;;;2.43;2.23;;;18.60;99.90;;;;;;5013687;28;20477;-81
2023/08/08 07:19:11;;;;;;;4.03;2.60;;;18.70;99.90;;;;;;5014014;28;20473;-81
2023/08/08 07:21:38;;;;;;;5.13;2.37;;;18.70;99.90;;;;;;5013886;28;20954;-80
2023/08/08 07:24:06;;;;;;;8.43;2.97;;;18.70;99.90;;;;;;5013383;28;20475;-80
2023/08/08 07:26:33;;;;;;;2.80;2.60;;;18.70;99.90;;;;;;5014074;28;20560;-80
2023/08/08 07:29:00;;;;;;;3.80;2.50;;;18.70;99.90;;;;;;5013396;28;20469;-80
2023/08/08 07:31:27;;;;;;;6.73;2.80;;;18.80;99.90;;;;;;5013805;28;20552;-80
2023/08/08 07:33:54;;;;;;;3.93;2.70;;;18.70;99.90;;;;;;5013207;28;20556;-80
2023/08/08 07:36:21;;;;;;;4.33;2.10;;;18.80;99.90;;;;;;5013355;28;20983;-80
2023/08/08 07:38:47;;;;;;;2.27;2.07;;;18.70;99.90;;;;;;5013410;28;20544;-80
2023/08/08 07:41:17;;;;;;;2.57;2.30;;;18.80;99.90;;;;;;5013913;28;20488;-80
2023/08/08 07:43:44;;;;;;;2.97;2.37;;;18.80;99.90;;;;;;5013205;28;20519;-80
2023/08/08 07:46:11;;;;;;;2.70;2.50;;;18.90;99.90;;;;;;5013909;28;20504;-80
2023/08/08 07:48:38;;;;;;;3.20;2.40;;;19.00;99.90;;;;;;5013406;28;20561;-80
2023/08/08 07:51:05;;;;;;;4.63;2.30;;;19.00;99.90;;;;;;5013518;28;20523;-80
2023/08/08 07:53:32;;;;;;;4.03;1.90;;;19.10;99.90;;;;;;5013978;28;20461;-80
2023/08/08 07:55:59;;;;;;;2.03;1.80;;;19.20;99.90;;;;;;5013383;28;20564;-80
2023/08/08 07:58:27;;;;;;;3.00;2.03;;;19.30;99.90;;;;;;5013845;28;20557;-80
2023/08/08 08:00:54;;;;;;;4.03;1.97;;;19.40;99.90;;;;;;5013334;28;20516;-80
2023/08/08 08:03:22;;;;;;;2.27;2.10;;;19.50;99.90;;;;;;5012350;28;20552;-80
2023/08/08 08:05:48;;;;;;;3.43;2.20;;;19.50;99.90;;;;;;5013084;28;20477;-80
2023/08/08 08:08:15;;;;;;;3.57;2.57;;;19.60;99.90;;;;;;5013456;28;20586;-80
2023/08/08 08:10:42;;;;;;;3.07;1.90;;;19.60;99.90;;;;;;5013582;28;20551;-80
2023/08/08 08:13:11;;;;;;;2.50;2.30;;;19.70;99.90;;;;;;5013076;28;20930;-80
2023/08/08 08:15:40;;;;;;;3.60;2.20;;;19.80;99.90;;;;;;5013422;28;20531;-80
2023/08/08 08:18:07;;;;;;;2.80;2.07;;;19.90;99.90;;;;;;5013172;28;20540;-81
2023/08/08 08:20:34;;;;;;;2.90;1.90;;;19.80;99.90;;;;;;5013297;28;20489;-81
2023/08/08 08:23:01;;;;;;;2.77;2.40;;;19.90;99.90;;;;;;5013110;28;20472;-81
2023/08/08 08:25:31;;;;;;;2.07;1.87;;;19.90;99.90;;;;;;5013737;28;20562;-80
2023/08/08 08:27:59;;;;;;;3.53;2.30;;;19.90;99.90;;;;;;5013242;28;20473;-81
2023/08/08 08:30:26;;;;;;;3.53;2.57;;;19.90;99.90;;;;;;5013313;28;20540;-80
2023/08/08 08:32:56;;;;;;;3.80;2.87;;;20.00;99.90;;;;;;5013155;28;20475;-82
2023/08/08 08:35:25;;;;;;;2.80;2.17;;;20.20;99.90;;;;;;5013817;28;20579;-79
2023/08/08 08:37:53;;;;;;;4.77;2.40;;;20.20;99.90;;;;;;5003047;28;20481;-79
2023/08/08 08:40:20;;;;;;;3.20;1.97;;;20.10;99.90;;;;;;5012412;28;20461;-79
2023/08/08 08:42:49;;;;;;;3.33;1.60;;;20.10;99.90;;;;;;5013570;28;20963;-80
2023/08/08 08:45:25;;;;;;;2.50;2.00;;;20.10;99.90;;;;;;5003634;28;20469;-80
2023/08/08 08:47:59;;;;;;;3.53;2.57;;;20.10;99.90;;;;;;5013003;28;20566;-80
2023/08/08 08:50:30;;;;;;;4.17;2.23;;;20.10;99.90;;;;;;5013773;28;20464;-81
2023/08/08 08:53:00;;;;;;;1.97;1.60;;;20.20;99.90;;;;;;5013847;28;20472;-79
2023/08/08 08:55:34;;;;;;;3.87;2.20;;;20.10;99.90;;;;;;5013084;28;20528;-81
2023/08/08 08:58:06;;;;;;;2.97;2.20;;;20.20;99.90;;;;;;5014432;28;20464;-79
2023/08/08 09:00:39;;;;;;;4.97;2.20;;;20.20;99.90;;;;;;5016282;28;20453;-81
2023/08/08 09:03:10;;;;;;;1.87;1.70;;;20.10;99.90;;;;;;5016858;28;20476;-81
2023/08/08 09:05:44;;;;;;;2.27;2.00;;;20.20;99.90;;;;;;5016295;28;20801;-80
2023/08/08 09:08:15;;;;;;;2.20;2.00;;;20.30;99.90;;;;;;5016646;28;20555;-80
2023/08/08 09:10:53;;;;;;;4.40;2.30;;;20.40;99.90;;;;;;5016093;28;20472;-80
2023/08/08 09:13:29;;;;;;;3.63;1.90;;;20.50;99.90;;;;;;5016918;28;20465;-81
2023/08/08 09:16:03;;;;;;;4.27;2.00;;;20.50;99.90;;;;;;5016683;28;20978;-80
2023/08/08 09:18:38;;;;;;;3.20;2.00;;;20.60;99.90;;;;;;5016392;28;20570;-79
2023/08/08 09:21:06;;;;;;;3.27;2.30;;;20.70;99.90;;;;;;5017989;28;20806;-79
2023/08/08 09:23:33;;;;;;;3.03;2.30;;;20.70;99.90;;;;;;5017297;28;20539;-81
2023/08/08 09:26:04;;;;;;;2.63;2.43;;;20.70;99.90;;;;;;5017156;28;20477;-80
2023/08/08 09:28:32;;;;;;;2.20;2.00;;;20.80;99.90;;;;;;5016693;28;20850;-80
2023/08/08 09:31:03;;;;;;;2.50;2.30;;;20.80;99.90;;;;;;5018281;28;20798;-80
2023/08/08 09:33:34;;;;;;;2.30;2.10;;;20.90;99.90;;;;;;5017207;28;20465;-79
2023/08/08 09:36:04;;;;;;;2.60;2.20;;;20.80;99.90;;;;;;5016693;28;20485;-79
2023/08/08 09:38:35;;;;;;;2.83;2.10;;;20.70;99.90;;;;;;5015752;28;20469;-78
2023/08/08 09:41:05;;;;;;;2.77;1.97;;;20.70;99.90;;;;;;5017950;28;20493;-79
2023/08/08 09:43:34;;;;;;;2.90;2.17;;;20.70;99.90;;;;;;5015774;28;20531;-80
2023/08/08 09:46:09;;;;;;;2.77;2.00;;;20.70;99.90;;;;;;5017706;28;20483;-80
2023/08/08 09:48:43;;;;;;;4.20;2.10;;;20.80;99.90;;;;;;5017386;28;20472;-79
2023/08/08 09:51:14;;;;;;;3.70;2.30;;;20.70;99.90;;;;;;5016457;28;20492;-79
2023/08/08 09:53:47;;;;;;;3.53;1.97;;;20.70;99.90;;;;;;5015483;28;20465;-80
2023/08/08 09:56:18;;;;;;;3.50;2.63;;;20.70;99.90;;;;;;5016533;28;20552;-79
2023/08/08 09:58:50;;;;;;;6.17;2.67;;;20.70;99.90;;;;;;5016345;28;20457;-79
2023/08/08 10:01:20;;;;;;;3.33;2.90;;;20.80;99.90;;;;;;5017236;28;20502;-79
2023/08/08 10:03:53;;;;;;;6.00;2.70;;;20.80;99.90;;;;;;5016350;28;20480;-80
2023/08/08 10:06:21;;;;;;;3.40;3.00;;;20.60;99.90;;;;;;5017510;28;20979;-81
2023/08/08 10:08:49;;;;;;;2.80;2.60;;;20.40;99.90;;;;;;5019982;28;20954;-78
2023/08/08 10:11:28;;;;;;;4.67;3.30;;;20.20;99.90;;;;;;5018469;28;20465;-79
2023/08/08 10:14:00;;;;;;;2.57;2.37;;;20.20;99.90;;;;;;5016391;28;21593;-80
2023/08/08 10:16:28;;;;;;;5.57;3.50;;;20.20;99.90;;;;;;4996643;28;20485;-80
2023/08/08 10:19:01;;;;;;;4.03;3.27;;;20.10;99.90;;;;;;4996658;28;20494;-79
2023/08/08 10:21:33;;;;;;;5.20;2.83;;;20.00;99.90;;;;;;4996972;28;20477;-81
2023/08/08 10:24:09;;;;;;;5.00;3.40;;;20.00;99.90;;;;;;5002664;28;20470;-79
2023/08/08 10:26:54;;;;;;;3.30;3.00;;;19.90;99.90;;;;;;4998542;28;20970;-80
2023/08/08 10:29:21;;;;;;;3.47;3.00;;;19.90;99.90;;;;;;4997043;28;20458;-79
2023/08/08 10:32:03;;;;;;;2.03;1.83;;;19.90;99.90;;;;;;4996584;28;20466;-80
2023/08/08 10:34:42;;;;;;;4.40;2.40;;;19.90;99.90;;;;;;4997449;28;20469;-81
2023/08/08 10:37:15;;;;;;;13.10;10.27;;;20.00;99.90;;;;;;4996858;28;20458;-81
2023/08/08 10:39:53;;;;;;;17.47;14.37;;;20.10;99.90;;;;;;5001169;28;20476;-80
2023/08/08 10:42:21;;;;;;;5.67;3.87;;;20.30;99.90;;;;;;4998600;28;21006;-81
2023/08/08 10:44:53;;;;;;;7.60;5.80;;;20.40;99.90;;;;;;4997427;28;20557;-81
2023/08/08 10:47:24;;;;;;;4.73;3.03;;;20.50;99.90;;;;;;4997231;28;20501;-82
2023/08/08 10:50:01;;;;;;;6.07;4.50;;;20.40;99.90;;;;;;4996666;28;20494;-80
2023/08/08 10:52:30;;;;;;;5.97;4.83;;;20.40;99.90;;;;;;4995589;28;20458;-80
2023/08/08 10:54:58;;;;;;;3.00;2.60;;;20.30;99.90;;;;;;4996505;28;20481;-80
2023/08/08 10:57:26;;;;;;;3.10;2.00;;;20.30;99.90;;;;;;4995494;28;20936;-80
2023/08/08 10:59:53;;;;;;;3.60;2.90;;;20.30;99.90;;;;;;4995591;28;20484;-80
2023/08/08 11:02:21;;;;;;;2.97;2.40;;;20.20;99.90;;;;;;4994610;28;20548;-80
2023/08/08 11:04:51;;;;;;;3.30;2.50;;;20.10;99.90;;;;;;4994238;28;20496;-80
2023/08/08 11:07:22;;;;;;;5.13;3.53;;;20.10;99.90;;;;;;4977658;28;20529;-80
2023/08/08 11:09:50;;;;;;;4.17;3.70;;;20.00;99.90;;;;;;4995250;28;20474;-82
2023/08/08 11:12:18;;;;;;;3.73;2.63;;;20.10;99.90;;;;;;4994679;28;20474;-81
2023/08/08 11:14:46;;;;;;;4.97;4.57;;;20.20;99.90;;;;;;4997239;28;20460;-80
2023/08/08 11:17:15;;;;;;;4.20;2.50;;;20.20;99.90;;;;;;5016463;28;20822;-80
2023/08/08 11:19:46;;;;;;;2.43;2.23;;;20.30;99.90;;;;;;5014610;28;20491;-80
2023/08/08 11:22:18;;;;;;;5.50;3.70;;;20.40;99.90;;;;;;5013432;28;20476;-81
2023/08/08 11:25:08;;;;;;;5.20;3.63;;;20.40;99.90;;;;;;5014107;28;20978;-82
2023/08/08 11:27:39;;;;;;;3.63;2.67;;;20.50;99.90;;;;;;5014011;28;20461;-80
2023/08/08 11:30:09;;;;;;;5.13;4.60;;;20.50;99.90;;;;;;5014238;28;20807;-80
2023/08/08 11:32:39;;;;;;;1.87;1.70;;;20.60;99.90;;;;;;5013699;28;20457;-80
2023/08/08 11:35:13;;;;;;;2.00;1.80;;;20.60;99.90;;;;;;5014026;28;20473;-80
2023/08/08 11:37:41;;;;;;;2.33;1.90;;;20.50;99.90;;;;;;5013707;28;20772;-80
2023/08/08 11:40:14;;;;;;;2.77;1.27;;;20.50;99.90;;;;;;5014366;28;20477;-80
2023/08/08 11:42:44;;;;;;;2.20;2.00;;;20.50;99.90;;;;;;5014043;28;20533;-82
2023/08/08 11:45:13;;;;;;;1.67;1.57;;;20.40;99.90;;;;;;5014491;28;20852;-81
2023/08/08 11:47:41;;;;;;;2.23;2.03;;;20.40;99.90;;;;;;5014172;28;20923;-80
2023/08/08 11:50:11;;;;;;;1.70;1.60;;;20.30;99.90;;;;;;5011909;28;20491;-81
2023/08/08 11:52:43;;;;;;;1.60;1.47;;;20.30;99.90;;;;;;5022815;28;20469;-80
2023/08/08 11:55:12;;;;;;;2.00;1.90;;;20.30;99.90;;;;;;5015148;28;20477;-81
2023/08/08 11:57:40;;;;;;;3.30;3.00;;;20.40;99.90;;;;;;5014073;28;20484;-81
2023/08/08 12:00:10;;;;;;;2.80;1.87;;;20.40;99.90;;;;;;5014189;28;20468;-79
2023/08/08 12:02:48;;;;;;;2.57;2.37;;;20.40;99.90;;;;;;5012193;28;20967;-78
2023/08/08 12:05:24;;;;;;;2.90;2.70;;;20.50;99.90;;;;;;5013453;28;20473;-80
2023/08/08 12:07:52;;;;;;;2.40;2.30;;;20.50;99.90;;;;;;5013443;28;20923;-79
2023/08/08 12:10:23;;;;;;;2.90;1.97;;;20.60;99.90;;;;;;5013605;28;20807;-80
2023/08/08 12:12:55;;;;;;;2.30;2.10;;;20.60;99.90;;;;;;5013260;28;20465;-80
2023/08/08 12:15:22;;;;;;;2.97;2.70;;;20.70;99.90;;;;;;5012896;28;20465;-80
2023/08/08 12:17:50;;;;;;;2.63;2.43;;;20.80;99.90;;;;;;5013019;28;20477;-82
2023/08/08 12:20:17;;;;;;;2.80;2.60;;;20.90;99.90;;;;;;5013708;28;20599;-82
2023/08/08 12:22:45;;;;;;;3.73;2.97;;;20.90;99.90;;;;;;5013182;28;20488;-80
2023/08/08 12:25:12;;;;;;;2.23;2.10;;;21.00;99.90;;;;;;5013203;28;20481;-80
2023/08/08 12:27:40;;;;;;;3.83;3.47;;;21.10;99.90;;;;;;5012601;28;20477;-80
2023/08/08 12:30:09;;;;;;;2.90;2.70;;;21.20;99.90;;;;;;5013362;28;20504;-80
2023/08/08 12:32:36;;;;;;;3.00;2.30;;;21.30;99.90;;;;;;5012289;28;20473;-80
2023/08/08 12:35:03;;;;;;;3.20;2.90;;;21.30;99.90;;;;;;5016714;28;20473;-82
2023/08/08 12:37:32;;;;;;;2.80;2.60;;;21.40;99.90;;;;;;5007282;28;20959;-82
2023/08/08 12:43:26;;;;;;;3.60;2.80;;;21.40;99.90;;;;;;4982035;28;20470;-81
2023/08/08 12:45:53;;;;;;;3.97;3.00;;;21.50;99.90;;;;;;5015872;28;20476;-82
2023/08/08 12:48:21;;;;;;;2.33;2.20;;;21.40;99.90;;;;;;5016704;28;20465;-82
2023/08/08 12:50:48;;;;;;;3.80;2.53;;;21.40;99.90;;;;;;5016612;28;20472;-82
2023/08/08 12:53:17;;;;;;;2.83;2.47;;;21.30;99.90;;;;;;5016410;28;20527;-81
2023/08/08 12:55:44;;;;;;;2.77;2.37;;;21.30;99.90;;;;;;5016640;28;20836;-81